createdAt,value
2022-07-28T00:00:17.156Z,85.24
2022-07-28T00:02:43.959Z,85.24
2022-07-28T00:05:11.078Z,85.19
2022-07-28T00:07:37.910Z,85.09
2022-07-28T00:10:05.577Z,85.16
2022-07-28T00:12:32.376Z,85.18
2022-07-28T00:14:59.352Z,85.11
2022-07-28T00:17:26.078Z,85.07
2022-07-28T00:19:52.824Z,85.05
2022-07-28T00:22:19.658Z,84.95
2022-07-28T00:24:46.407Z,84.84
2022-07-28T00:27:19.174Z,84.80
2022-07-28T00:29:50.610Z,84.75
2022-07-28T00:32:18.626Z,84.60
2022-07-28T00:34:45.627Z,84.72
2022-07-28T00:37:14.573Z,84.84
2022-07-28T00:39:42.120Z,84.80
2022-07-28T00:42:09.140Z,85.00
2022-07-28T00:44:35.942Z,85.21
2022-07-28T00:47:02.873Z,85.26
2022-07-28T00:49:32.799Z,85.31
2022-07-28T00:51:59.554Z,85.33
2022-07-28T00:54:26.352Z,85.34
2022-07-28T00:56:53.075Z,85.45
2022-07-28T00:59:19.802Z,85.44
2022-07-28T01:01:49.001Z,85.38
2022-07-28T01:04:16.735Z,85.54
2022-07-28T01:06:58.506Z,85.40
2022-07-28T01:13:24.813Z,85.45
2022-07-28T01:16:05.351Z,85.71
2022-07-28T01:23:28.366Z,85.95
2022-07-28T01:26:33.809Z,86.04
2022-07-28T01:29:53.271Z,86.33
2022-07-28T01:36:52.307Z,86.78
2022-07-28T01:40:17.944Z,86.80
2022-07-28T01:43:40.632Z,86.92
2022-07-28T01:53:54.503Z,87.24
2022-07-28T01:56:36.293Z,87.12
2022-07-28T01:59:18.345Z,87.19
2022-07-28T02:01:45.185Z,87.10
2022-07-28T02:04:33.765Z,87.17
2022-07-28T02:07:19.043Z,86.99
2022-07-28T02:09:45.805Z,87.04
2022-07-28T02:12:14.163Z,86.91
2022-07-28T02:15:30.975Z,86.88
2022-07-28T02:18:28.899Z,86.75
2022-07-28T02:20:55.660Z,86.82
2022-07-28T02:23:22.421Z,86.76
2022-07-28T02:26:13.988Z,86.75
2022-07-28T02:28:47.107Z,86.81
2022-07-28T02:31:27.651Z,86.72
2022-07-28T02:33:58.997Z,86.69
2022-07-28T02:36:56.500Z,86.71
2022-07-28T02:39:26.746Z,86.84
2022-07-28T02:42:36.971Z,86.61
2022-07-28T02:48:59.993Z,85.97
2022-07-28T02:51:36.165Z,85.88
2022-07-28T02:54:03.522Z,85.51
2022-07-28T02:56:30.340Z,85.13
2022-07-28T02:58:57.128Z,84.84
2022-07-28T03:01:24.019Z,84.62
2022-07-28T03:03:50.837Z,84.53
2022-07-28T03:10:33.543Z,84.21
2022-07-28T03:13:02.646Z,84.10
2022-07-28T03:15:29.490Z,84.08
2022-07-28T03:18:30.829Z,83.99
2022-07-28T03:20:57.872Z,84.02
2022-07-28T03:23:34.787Z,84.01
2022-07-28T03:26:05.708Z,84.08
2022-07-28T03:28:32.663Z,84.18
2022-07-28T03:31:05.543Z,84.28
2022-07-28T03:33:33.455Z,84.39
2022-07-28T03:36:02.439Z,84.41
2022-07-28T03:39:04.254Z,84.40
2022-07-28T03:46:31.649Z,83.88
2022-07-28T03:48:58.630Z,83.64
2022-07-28T03:52:15.851Z,83.43
2022-07-28T03:59:23.662Z,82.69
2022-07-28T04:01:50.545Z,82.32
2022-07-28T04:04:18.133Z,81.85
2022-07-28T04:06:45.039Z,81.62
2022-07-28T04:09:37.509Z,81.25
2022-07-28T04:12:10.456Z,80.58
2022-07-28T04:22:34.979Z,76.89
2022-07-28T04:30:18.060Z,75.73
2022-07-28T04:32:52.179Z,75.51
2022-07-28T04:35:59.353Z,75.44
2022-07-28T04:38:44.484Z,75.19
2022-07-28T04:41:11.324Z,75.11
2022-07-28T04:44:03.108Z,75.16
2022-07-28T04:46:30.433Z,74.64
2022-07-28T04:48:57.563Z,74.24
2022-07-28T04:52:20.872Z,73.71
2022-07-28T04:55:10.471Z,73.40
2022-07-28T04:57:37.412Z,73.08
2022-07-28T05:00:13.853Z,72.56
2022-07-28T05:02:41.127Z,72.62
2022-07-28T05:05:08.542Z,72.66
2022-07-28T05:07:35.828Z,72.20
2022-07-28T05:10:03.070Z,71.79
2022-07-28T05:12:30.013Z,71.44
2022-07-28T05:14:56.784Z,71.19
2022-07-28T05:17:23.532Z,71.18
2022-07-28T05:19:50.308Z,70.25
2022-07-28T05:22:17.593Z,69.89
2022-07-28T05:24:44.330Z,69.51
2022-07-28T05:27:12.319Z,68.60
2022-07-28T05:29:46.661Z,66.91
2022-07-28T05:32:17.013Z,65.42
2022-07-28T05:34:45.535Z,64.44
2022-07-28T05:37:12.417Z,63.47
2022-07-28T05:39:39.256Z,61.98
2022-07-28T05:42:06.306Z,61.30
2022-07-28T05:44:37.854Z,60.81
2022-07-28T05:47:05.793Z,59.60
2022-07-28T05:49:32.716Z,58.94
2022-07-28T05:51:59.656Z,58.26
2022-07-28T05:54:26.483Z,57.03
2022-07-28T05:56:53.302Z,55.51
2022-07-28T05:59:20.077Z,55.00
2022-07-28T06:01:46.870Z,54.53
2022-07-28T06:04:29.704Z,53.70
2022-07-28T06:06:56.620Z,52.96
2022-07-28T06:09:23.449Z,52.93
2022-07-28T06:11:50.789Z,52.12
2022-07-28T06:14:18.785Z,51.06
2022-07-28T06:16:50.937Z,50.72
2022-07-28T06:19:19.062Z,51.41
2022-07-28T06:21:45.847Z,51.85
2022-07-28T06:24:12.991Z,52.15
2022-07-28T06:26:44.374Z,52.60
2022-07-28T06:29:12.305Z,53.14
2022-07-28T06:31:39.302Z,53.72
2022-07-28T06:34:06.458Z,53.95
2022-07-28T06:36:33.310Z,53.64
2022-07-28T06:39:00.153Z,54.30
2022-07-28T06:41:26.898Z,55.16
2022-07-28T06:43:53.682Z,55.96
2022-07-28T06:46:20.555Z,55.87
2022-07-28T06:48:47.602Z,56.07
2022-07-28T06:51:19.046Z,56.31
2022-07-28T06:53:48.438Z,56.64
2022-07-28T06:56:16.035Z,56.74
2022-07-28T06:58:45.476Z,57.10
2022-07-28T07:01:15.014Z,56.95
2022-07-28T07:03:42.536Z,56.76
2022-07-28T07:06:11.059Z,56.81
2022-07-28T07:08:38.302Z,56.43
2022-07-28T07:11:05.116Z,55.36
2022-07-28T07:13:33.140Z,54.88
2022-07-28T07:16:00.299Z,54.63
2022-07-28T07:18:27.250Z,54.69
2022-07-28T07:20:54.854Z,54.83
2022-07-28T07:23:21.728Z,55.52
2022-07-28T07:25:48.571Z,55.09
2022-07-28T07:28:15.420Z,54.81
2022-07-28T07:30:43.571Z,53.99
2022-07-28T07:33:10.799Z,53.80
2022-07-28T07:35:38.236Z,53.62
2022-07-28T07:38:05.360Z,52.85
2022-07-28T07:40:32.341Z,52.91
2022-07-28T07:42:59.293Z,52.68
2022-07-28T07:45:26.215Z,52.25
2022-07-28T07:47:53.080Z,51.89
2022-07-28T07:50:19.826Z,52.37
2022-07-28T07:52:46.636Z,52.36
2022-07-28T07:55:13.355Z,51.85
2022-07-28T07:57:40.655Z,51.56
2022-07-28T08:00:08.201Z,50.35
2022-07-28T08:02:54.928Z,49.99
2022-07-28T08:05:21.656Z,50.06
2022-07-28T08:08:02.111Z,50.18
2022-07-28T08:10:28.935Z,50.39
2022-07-28T08:12:55.693Z,50.26
2022-07-28T08:15:22.530Z,49.62
2022-07-28T08:17:49.269Z,48.98
2022-07-28T08:20:16.004Z,49.31
2022-07-28T08:22:53.623Z,49.04
2022-07-28T08:25:20.848Z,48.60
2022-07-28T08:27:47.594Z,49.18
2022-07-28T08:30:15.018Z,49.12
2022-07-28T08:32:45.409Z,49.20
2022-07-28T08:35:39.607Z,49.40
2022-07-28T08:38:06.431Z,48.12
2022-07-28T08:40:33.342Z,48.25
2022-07-28T08:43:12.812Z,48.45
2022-07-28T08:45:39.515Z,48.06
2022-07-28T08:48:08.527Z,47.98
2022-07-28T08:50:35.695Z,47.82
2022-07-28T08:53:02.489Z,48.29
2022-07-28T08:55:32.090Z,48.57
2022-07-28T08:58:00.216Z,47.89
2022-07-28T09:00:27.321Z,47.90
2022-07-28T09:02:54.145Z,48.11
2022-07-28T09:05:21.601Z,48.29
2022-07-28T09:07:54.424Z,48.12
2022-07-28T09:10:22.142Z,47.95
2022-07-28T09:12:48.893Z,47.65
2022-07-28T09:15:15.870Z,46.99
2022-07-28T09:17:42.806Z,46.77
2022-07-28T09:20:11.430Z,46.77
2022-07-28T09:22:58.381Z,47.19
2022-07-28T09:25:25.311Z,46.63
2022-07-28T09:27:52.080Z,46.79
2022-07-28T09:30:32.764Z,47.26
2022-07-28T09:33:12.359Z,47.08
2022-07-28T09:35:59.202Z,47.23
2022-07-28T09:38:27.864Z,46.76
2022-07-28T09:41:03.732Z,46.37
2022-07-28T09:43:32.131Z,45.97
2022-07-28T09:46:12.488Z,45.89
2022-07-28T09:48:59.160Z,46.29
2022-07-28T09:51:28.122Z,45.98
2022-07-28T09:54:06.951Z,46.54
2022-07-28T09:56:33.744Z,45.78
2022-07-28T09:59:00.688Z,45.54
2022-07-28T10:01:35.113Z,45.57
2022-07-28T10:04:04.103Z,45.17
2022-07-28T10:06:32.327Z,44.72
2022-07-28T10:09:00.730Z,44.60
2022-07-28T10:11:28.369Z,44.47
2022-07-28T10:13:57.455Z,43.97
2022-07-28T10:16:25.991Z,43.97
2022-07-28T10:18:52.925Z,43.92
2022-07-28T10:24:20.513Z,42.54
2022-07-28T10:26:47.345Z,43.33
2022-07-28T10:29:16.345Z,43.69
2022-07-28T10:31:46.538Z,43.23
2022-07-28T10:34:20.105Z,43.35
2022-07-28T10:36:54.420Z,42.91
2022-07-28T10:39:22.816Z,42.65
2022-07-28T10:41:49.639Z,42.23
2022-07-28T10:44:18.911Z,42.24
2022-07-28T10:46:46.342Z,41.96
2022-07-28T10:49:13.935Z,41.47
2022-07-28T10:52:02.530Z,42.42
2022-07-28T10:54:34.875Z,42.18
2022-07-28T10:57:04.917Z,42.04
2022-07-28T10:59:55.798Z,41.79
2022-07-28T11:02:47.804Z,41.78
2022-07-28T11:05:29.061Z,42.16
2022-07-28T11:07:56.623Z,41.93
2022-07-28T11:10:23.713Z,41.80
2022-07-28T11:12:52.756Z,41.88
2022-07-28T11:15:26.748Z,42.08
2022-07-28T11:18:09.760Z,41.57
2022-07-28T11:20:58.578Z,40.06
2022-07-28T11:23:47.705Z,40.07
2022-07-28T11:26:21.149Z,40.79
2022-07-28T11:29:11.218Z,40.98
2022-07-28T11:31:44.039Z,41.49
2022-07-28T11:34:18.282Z,41.45
2022-07-28T11:37:05.122Z,41.83
2022-07-28T11:39:43.040Z,40.88
2022-07-28T11:42:29.585Z,40.98
2022-07-28T11:44:57.886Z,40.91
2022-07-28T11:47:25.498Z,41.03
2022-07-28T11:50:12.320Z,41.74
2022-07-28T11:52:39.537Z,41.82
2022-07-28T11:55:09.146Z,41.74
2022-07-28T11:57:40.786Z,41.38
2022-07-28T12:00:08.246Z,41.14
2022-07-28T12:02:35.448Z,39.90
2022-07-28T12:05:07.684Z,40.30
2022-07-28T12:07:36.629Z,41.37
2022-07-28T12:10:52.178Z,41.11
2022-07-28T12:13:12.620Z,40.54
2022-07-28T12:15:39.364Z,39.90
2022-07-28T12:18:11.087Z,39.74
2022-07-28T12:20:44.953Z,38.90
2022-07-28T12:23:15.610Z,39.24
2022-07-28T12:25:47.209Z,38.94
2022-07-28T12:28:22.624Z,39.67
2022-07-28T12:30:51.989Z,39.65
2022-07-28T12:33:29.164Z,39.49
2022-07-28T12:35:57.078Z,39.33
2022-07-28T12:38:24.748Z,39.21
2022-07-28T12:40:51.928Z,39.02
2022-07-28T12:43:22.736Z,39.46
2022-07-28T12:45:49.638Z,39.83
2022-07-28T12:48:18.827Z,40.87
2022-07-28T12:50:46.046Z,41.75
2022-07-28T12:53:13.410Z,41.44
2022-07-28T12:55:41.158Z,41.71
2022-07-28T12:58:08.320Z,41.30
2022-07-28T13:00:35.820Z,40.35
2022-07-28T13:03:26.325Z,39.16
2022-07-28T13:06:02.843Z,39.38
2022-07-28T13:08:44.548Z,40.13
2022-07-28T13:11:41.960Z,39.62
2022-07-28T13:14:00.053Z,39.13
2022-07-28T13:16:27.678Z,40.29
2022-07-28T13:18:59.400Z,40.86
2022-07-28T13:21:56.680Z,40.79
2022-07-28T13:24:25.746Z,41.12
2022-07-28T13:26:52.601Z,40.54
2022-07-28T13:29:19.776Z,40.10
2022-07-28T13:31:46.696Z,40.07
2022-07-28T13:34:13.936Z,40.32
2022-07-28T13:36:41.323Z,40.10
2022-07-28T13:39:10.449Z,39.92
2022-07-28T13:41:48.505Z,40.07
2022-07-28T13:44:24.104Z,40.67
2022-07-28T13:46:51.682Z,40.70
2022-07-28T13:49:21.417Z,40.83
2022-07-28T13:51:49.028Z,40.99
2022-07-28T13:54:19.216Z,40.37
2022-07-28T13:56:46.767Z,39.46
2022-07-28T13:59:26.420Z,39.32
2022-07-28T14:01:55.292Z,39.11
2022-07-28T14:04:22.384Z,39.09
2022-07-28T14:06:49.474Z,38.93
2022-07-28T14:09:18.214Z,38.31
2022-07-28T14:11:49.624Z,38.95
2022-07-28T14:14:24.173Z,39.93
2022-07-28T14:16:54.987Z,39.95
2022-07-28T14:19:38.487Z,39.57
2022-07-28T14:22:12.714Z,39.57
2022-07-28T14:24:44.096Z,39.80
2022-07-28T14:27:13.727Z,39.70
2022-07-28T14:29:42.634Z,39.31
2022-07-28T14:32:09.367Z,39.67
2022-07-28T14:34:36.131Z,39.68
2022-07-28T14:37:09.090Z,38.74
2022-07-28T14:39:37.794Z,37.99
2022-07-28T14:42:05.656Z,37.83
2022-07-28T14:44:32.412Z,37.78
2022-07-28T14:46:59.269Z,38.64
2022-07-28T14:49:26.069Z,39.28
2022-07-28T14:51:52.921Z,39.18
2022-07-28T14:54:19.811Z,39.07
2022-07-28T14:56:46.612Z,39.28
2022-07-28T14:59:13.326Z,39.25
2022-07-28T15:01:40.530Z,39.16
2022-07-28T15:04:07.629Z,39.14
2022-07-28T15:06:34.397Z,39.16
2022-07-28T15:09:01.954Z,39.15
2022-07-28T15:11:28.706Z,38.73
2022-07-28T15:13:55.447Z,39.17
2022-07-28T15:16:22.229Z,39.54
2022-07-28T15:18:50.943Z,39.54
2022-07-28T15:21:17.816Z,39.43
2022-07-28T15:23:44.845Z,39.38
2022-07-28T15:26:11.669Z,39.75
2022-07-28T15:28:38.474Z,39.53
2022-07-28T15:31:08.387Z,39.70
2022-07-28T15:33:39.974Z,39.75
2022-07-28T15:36:14.711Z,39.91
2022-07-28T15:38:41.623Z,40.12
2022-07-28T15:41:08.336Z,40.30
2022-07-28T15:43:35.133Z,40.54
2022-07-28T15:46:08.513Z,40.45
2022-07-28T15:48:36.097Z,40.13
2022-07-28T15:51:02.996Z,40.28
2022-07-28T15:53:29.858Z,40.66
2022-07-28T15:55:56.568Z,40.75
2022-07-28T15:58:26.510Z,41.33
2022-07-28T16:00:53.272Z,40.86
2022-07-28T16:03:21.670Z,41.16
2022-07-28T16:05:49.641Z,41.62
2022-07-28T16:08:17.747Z,41.60
2022-07-28T16:10:45.097Z,41.73
2022-07-28T16:13:11.840Z,41.58
2022-07-28T16:15:38.833Z,41.60
2022-07-28T16:18:05.727Z,41.26
2022-07-28T16:20:32.620Z,41.17
2022-07-28T16:22:59.901Z,41.28
2022-07-28T16:25:26.782Z,41.12
2022-07-28T16:27:53.547Z,41.51
2022-07-28T16:30:20.510Z,41.89
2022-07-28T16:32:47.446Z,42.12
2022-07-28T16:35:14.244Z,41.90
2022-07-28T16:37:41.097Z,41.89
2022-07-28T16:40:08.866Z,42.05
2022-07-28T16:42:38.571Z,42.23
2022-07-28T16:45:05.729Z,42.53
2022-07-28T16:47:32.876Z,42.84
2022-07-28T16:49:59.618Z,43.20
2022-07-28T16:52:27.478Z,43.59
2022-07-28T16:54:54.275Z,43.47
2022-07-28T16:57:21.036Z,43.75
2022-07-28T16:59:49.044Z,45.20
2022-07-28T17:02:17.083Z,45.53
2022-07-28T17:04:43.965Z,45.79
2022-07-28T17:07:10.777Z,46.39
2022-07-28T17:09:39.085Z,46.85
2022-07-28T17:12:06.844Z,47.82
2022-07-28T17:14:33.568Z,49.26
2022-07-28T17:17:00.312Z,49.62
2022-07-28T17:19:27.118Z,49.70
2022-07-28T17:22:01.144Z,51.27
2022-07-28T17:24:28.146Z,51.63
2022-07-28T17:29:42.554Z,53.41
2022-07-28T17:32:09.633Z,54.41
2022-07-28T17:34:37.490Z,53.95
2022-07-28T17:37:04.873Z,53.66
2022-07-28T17:39:31.621Z,55.03
2022-07-28T17:41:58.419Z,55.74
2022-07-28T17:44:25.138Z,56.51
2022-07-28T17:46:51.972Z,56.81
2022-07-28T17:49:18.886Z,56.97
2022-07-28T17:51:45.809Z,57.65
2022-07-28T17:54:15.400Z,57.76
2022-07-28T17:56:42.528Z,58.19
2022-07-28T17:59:10.485Z,58.68
2022-07-28T18:01:39.965Z,59.09
2022-07-28T18:04:10.458Z,59.45
2022-07-28T18:06:38.391Z,59.91
2022-07-28T18:09:08.093Z,60.16
2022-07-28T18:11:57.931Z,60.69
2022-07-28T18:14:29.157Z,60.86
2022-07-28T18:16:56.057Z,61.10
2022-07-28T18:19:22.827Z,61.44
2022-07-28T18:21:49.690Z,61.47
2022-07-28T18:24:16.969Z,61.70
2022-07-28T18:26:44.062Z,61.92
2022-07-28T18:29:10.787Z,62.11
2022-07-28T18:31:41.369Z,62.56
2022-07-28T18:34:12.502Z,63.25
2022-07-28T18:36:39.517Z,63.35
2022-07-28T18:39:06.360Z,63.39
2022-07-28T18:41:34.514Z,63.61
2022-07-28T18:44:16.297Z,63.62
2022-07-28T18:46:43.550Z,63.72
2022-07-28T18:49:10.470Z,63.97
2022-07-28T18:51:37.346Z,64.06
2022-07-28T18:54:04.270Z,64.24
2022-07-28T18:56:31.616Z,64.33
2022-07-28T18:58:58.434Z,64.54
2022-07-28T19:01:25.284Z,64.63
2022-07-28T19:03:52.133Z,64.80
2022-07-28T19:06:20.616Z,65.15
2022-07-28T19:08:47.471Z,65.21
2022-07-28T19:11:18.745Z,65.16
2022-07-28T19:13:46.796Z,65.30
2022-07-28T19:16:13.712Z,65.46
2022-07-28T19:18:40.662Z,65.42
2022-07-28T19:21:08.081Z,65.69
2022-07-28T19:23:34.902Z,65.65
2022-07-28T19:26:02.720Z,65.67
2022-07-28T19:28:29.596Z,65.82
2022-07-28T19:30:58.537Z,66.11
2022-07-28T19:33:25.842Z,66.35
2022-07-28T19:35:52.677Z,66.46
2022-07-28T19:38:19.507Z,66.81
2022-07-28T19:40:46.356Z,67.11
2022-07-28T19:43:13.084Z,67.22
2022-07-28T19:45:39.846Z,67.25
2022-07-28T19:48:07.470Z,67.13
2022-07-28T19:50:36.175Z,67.40
2022-07-28T19:53:03.094Z,67.60
2022-07-28T19:55:32.312Z,67.59
2022-07-28T19:58:01.964Z,67.68
2022-07-28T20:00:28.826Z,67.55
2022-07-28T20:02:56.242Z,67.40
2022-07-28T20:05:23.111Z,67.31
2022-07-28T20:07:49.883Z,67.48
2022-07-28T20:10:16.680Z,67.63
2022-07-28T20:12:45.352Z,67.72
2022-07-28T20:15:12.442Z,67.79
2022-07-28T20:17:40.006Z,67.77
2022-07-28T20:20:12.236Z,67.81
2022-07-28T20:22:39.929Z,68.07
2022-07-28T20:25:10.586Z,68.24
2022-07-28T20:27:40.471Z,68.17
2022-07-28T20:30:08.864Z,68.38
2022-07-28T20:32:36.936Z,68.43
2022-07-28T20:35:05.004Z,68.67
2022-07-28T20:37:36.695Z,68.75
2022-07-28T20:40:07.894Z,68.89
2022-07-28T20:42:35.380Z,68.88
2022-07-28T20:45:02.155Z,68.92
2022-07-28T20:47:31.849Z,68.81
2022-07-28T20:49:58.756Z,68.93
2022-07-28T20:52:25.552Z,68.95
2022-07-28T20:54:54.881Z,68.99
2022-07-28T20:57:22.606Z,68.85
2022-07-28T20:59:51.373Z,68.78
2022-07-28T21:02:19.394Z,68.85
2022-07-28T21:04:46.182Z,68.87
2022-07-28T21:08:00.550Z,68.85
2022-07-28T21:10:06.422Z,68.81
2022-07-28T21:12:33.912Z,68.95
2022-07-28T21:15:00.708Z,68.94
2022-07-28T21:17:27.520Z,68.89
2022-07-28T21:19:54.280Z,69.04
2022-07-28T21:22:22.953Z,69.31
2022-07-28T21:24:54.705Z,69.55
2022-07-28T21:27:22.361Z,69.93
2022-07-28T21:29:49.261Z,70.14
2022-07-28T21:32:16.026Z,70.28
2022-07-28T21:34:42.768Z,70.31
2022-07-28T21:37:11.623Z,70.34
2022-07-28T21:39:39.122Z,70.23
2022-07-28T21:42:08.551Z,70.45
2022-07-28T21:44:39.362Z,70.40
2022-07-28T21:47:06.190Z,70.31
2022-07-28T21:49:33.068Z,70.34
2022-07-28T21:51:59.989Z,70.42
2022-07-28T21:54:27.041Z,70.51
2022-07-28T21:56:53.764Z,70.53
2022-07-28T21:59:20.551Z,70.51
2022-07-28T22:01:47.638Z,70.59
2022-07-28T22:04:14.951Z,70.80
2022-07-28T22:06:45.945Z,70.97
2022-07-28T22:09:14.371Z,71.06
2022-07-28T22:11:41.292Z,71.01
2022-07-28T22:14:08.095Z,71.08
2022-07-28T22:16:34.932Z,71.15
2022-07-28T22:19:01.870Z,71.28
2022-07-28T22:21:28.594Z,71.37
2022-07-28T22:23:55.422Z,71.33
2022-07-28T22:26:22.285Z,71.17
2022-07-28T22:28:49.009Z,71.31
2022-07-28T22:31:15.819Z,71.37
2022-07-28T22:33:42.678Z,71.41
2022-07-28T22:36:09.468Z,71.52
2022-07-28T22:41:40.501Z,71.70
2022-07-28T22:44:08.799Z,71.76
2022-07-28T22:46:35.553Z,71.74
2022-07-28T22:49:02.436Z,71.65
2022-07-28T22:51:29.277Z,71.62
2022-07-28T22:53:57.489Z,71.56
2022-07-28T22:56:24.232Z,71.52
2022-07-28T22:58:51.224Z,71.61
2022-07-28T23:01:18.038Z,71.74
2022-07-28T23:03:45.697Z,71.81
2022-07-28T23:06:14.293Z,71.83
2022-07-28T23:08:41.067Z,71.74
2022-07-28T23:11:07.843Z,71.77
2022-07-28T23:13:34.694Z,71.84
2022-07-28T23:16:01.574Z,71.74
2022-07-28T23:18:28.443Z,71.64
2022-07-28T23:20:55.282Z,71.47
2022-07-28T23:23:22.023Z,71.53
2022-07-28T23:25:48.842Z,71.58
2022-07-28T23:28:15.610Z,71.57
2022-07-28T23:30:42.387Z,71.49
2022-07-28T23:33:09.200Z,71.68
2022-07-28T23:35:56.509Z,71.66
2022-07-28T23:38:23.324Z,71.58
2022-07-28T23:40:50.051Z,71.62
2022-07-28T23:43:16.837Z,71.68
2022-07-28T23:45:43.567Z,71.83
2022-07-28T23:48:10.390Z,71.66
2022-07-28T23:50:37.109Z,71.78
2022-07-28T23:53:04.244Z,71.90
2022-07-28T23:55:31.013Z,71.94
2022-07-28T23:57:57.763Z,71.90
